Terminal Aerodrome Forecast
Issued by NWS Shreveport, LA

Home | Current Version | Previous Version | Text Only | Print | Product List | Glossary On
Versions: 1 2 3 4 5 6 7 8 9 10 11 12 13 14 15 16 17 18 19 20 21 22 23 24
387
FTUS44 KSHV 302342
TAFELD
TAF
KELD 302342Z 0100/0124 12007KT P6SM BKN035 OVC050
     FM010700 VRB03KT 3SM BR BKN015
      TEMPO 0110/0114 1SM BR OVC007
     FM011600 07005KT P6SM SCT020
     FM011800 07005KT P6SM SCT035=

USA.gov is the U.S. government's official web portal to all federal, state and local government web resources and services.